Heinz Schepers — V2OM7 — position and weather

sailwx.info

Track history (hours):
 
Tides and Currents Weather Stations Pressure Air Temp Water Temp Dewpoint Dewpoint Depression Visibility Wind Speed Wind Dir Waves Ship Positions

Heinz Schepers

Last reported at 2014-Sep-02 18:33 UTC. Time now 2014-Sep-02 19:15 UTC.
Position N 34°39' E 033°01'.

Length 101 m; draft 5 m.

Type: Cargo ship. MMSI: 304596000.

Date/timePositionNaut miles runAvg speedWind from/ knotsBaromVisibWave heightAir tempDewpointWater temp
2014-Sep-02 18:33N 34°39' E 033°01'0 0.0
2014-Sep-02 17:34N 34°39' E 033°01'0 0.0
2014-Sep-02 16:33N 34°39' E 033°01'0 0.0
2014-Sep-02 15:33N 34°39' E 033°01'0 0.0
2014-Sep-02 14:33N 34°39' E 033°01'0 0.0
2014-Sep-02 13:33N 34°39' E 033°01'0 0.0
2014-Sep-02 12:33N 34°39' E 033°01'0 0.0
2014-Sep-02 11:34N 34°39' E 033°01'0 0.0
2014-Sep-02 10:33N 34°39' E 033°01'0 0.0
2014-Sep-02 09:33N 34°39' E 033°01'0 0.0
2014-Sep-02 08:33N 34°39' E 033°01'0 0.0
2014-Sep-02 07:33N 34°39' E 033°01'0 0.0
2014-Sep-02 06:33N 34°39' E 033°01'0 0.0
2014-Sep-02 05:33N 34°39' E 033°01'0 0.0
2014-Sep-02 04:33N 34°39' E 033°01'2 1.7
2014-Sep-02 03:33N 34°39' E 033°03'4 4.3
2014-Sep-02 02:33N 34°35' E 033°04'10 9.5
2014-Sep-02 01:33N 34°32' E 032°53'1111.4
2014-Sep-02 00:33N 34°35' E 032°40'1211.8
2014-Sep-01 23:33N 34°39' E 032°26'31411.0
2014-Aug-31 19:11N 37°18' E 026°52'1013.8
2014-Aug-31 18:27N 37°26' E 026°45'1414.1
2014-Aug-31 17:26N 37°38' E 026°35'  
2014-Aug-28 00:22N 38°26' E 024°59'3813.7
2014-Aug-27 21:34N 38°06' E 025°41'1914.1
2014-Aug-27 20:11N 37°56' E 026°02'914.0
2014-Aug-27 19:33N 37°51' E 026°11'1413.7
2014-Aug-27 18:33N 37°44' E 026°26'1311.9
2014-Aug-27 17:28N 37°35' E 026°38'1112.3
2014-Aug-27 16:33N 37°26' E 026°46'1312.3
2014-Aug-27 15:31N 37°15' E 026°54'1313.0
2014-Aug-27 14:32N 37°04' E 027°02'2311.2
2014-Aug-27 12:27N 36°46' E 027°21'1010.8
2014-Aug-27 11:30N 36°37' E 027°26'19613.6
2014-Aug-26 21:09N 35°14' E 031°06'3613.3
2014-Aug-26 18:28N 34°57' E 031°44'1212.7
2014-Aug-26 17:33N 34°51' E 031°56'1512.6
2014-Aug-26 16:23N 34°44' E 032°12'1012.6
2014-Aug-26 15:33N 34°40' E 032°23'1313.4
2014-Aug-26 14:33N 34°36' E 032°39'1313.3
2014-Aug-26 13:33N 34°32' E 032°54'9 9.4
2014-Aug-26 12:33N 34°38' E 033°03'2 2.0
2014-Aug-26 11:32N 34°39' E 033°01'0 0.0
2014-Aug-26 10:32N 34°39' E 033°01'0 0.0
2014-Aug-26 09:32N 34°39' E 033°01'0 0.0
2014-Aug-26 08:32N 34°39' E 033°01'0 0.0
2014-Aug-26 07:32N 34°39' E 033°01'0 0.0
2014-Aug-26 06:32N 34°39' E 033°01'0 0.0
2014-Aug-26 05:32N 34°39' E 033°01'0 0.0
2014-Aug-26 04:31N 34°39' E 033°01'0 0.2
2014-Aug-26 03:34N 34°39' E 033°01'2 2.3
2014-Aug-26 02:32N 34°40' E 033°04'0 0.1
2014-Aug-26 01:32N 34°40' E 033°04'0 0.0
2014-Aug-26 00:32N 34°40' E 033°04'0 0.0
2014-Aug-25 23:32N 34°40' E 033°04'0 0.0
2014-Aug-25 22:32N 34°40' E 033°04'0 0.1
2014-Aug-25 21:33N 34°40' E 033°04'9 8.6
2014-Aug-25 20:34N 34°32' E 033°00'1313.2
2014-Aug-25 19:34N 34°34' E 032°45'1313.1
2014-Aug-25 18:33N 34°38' E 032°29'1413.7
2014-Aug-25 17:33N 34°44' E 032°14'1413.9
2014-Aug-25 16:31N 34°50' E 031°59'3113.5
2014-Aug-25 14:12N 35°05' E 031°25'1413.1
2014-Aug-25 13:08N 35°12' E 031°10'1213.2
2014-Aug-25 12:13N 35°18' E 030°57'1313.2
2014-Aug-25 11:13N 35°24' E 030°43'1112.7
2014-Aug-25 10:21N 35°29' E 030°31'1012.3
2014-Aug-25 09:33N 35°34' E 030°20'1212.1
2014-Aug-25 08:32N 35°40' E 030°07'2512.0
2014-Aug-25 06:29N 35°51' E 029°40'2311.9
2014-Aug-25 04:31N 36°02' E 029°14'1212.3
2014-Aug-25 03:32N 36°08' E 029°01'6312.6
2014-Aug-24 22:34N 36°29' E 027°48'1313.3
2014-Aug-24 21:33N 36°34' E 027°33'3711.5
2014-Aug-24 18:17N 37°03' E 027°03'1013.4
2014-Aug-24 17:33N 37°12' E 026°57'2813.7
2014-Aug-24 15:32N 37°35' E 026°38'1313.4
2014-Aug-24 14:33N 37°44' E 026°26'1313.3
2014-Aug-24 13:33N 37°51' E 026°12'2613.1
2014-Aug-24 11:33N 38°05' E 025°43'1312.7
2014-Aug-24 10:33N 38°11' E 025°29'1313.2
2014-Aug-24 09:33N 38°18' E 025°15'2713.5
2014-Aug-24 07:32N 38°32' E 024°45'  
Track history (hours):
 
Tides and Currents Weather Stations Pressure Air Temp Water Temp Dewpoint Dewpoint Depression Visibility Wind Speed Wind Dir Waves Ship Positions

Heinz Schepers

Last reported at 2014-Sep-02 18:33 UTC. Time now 2014-Sep-02 19:15 UTC.
Position N 34°39' E 033°01'.

Length 101 m; draft 5 m.

Type: Cargo ship. MMSI: 304596000.

Date/timePositionNaut miles runAvg speedWind from/ knotsBaromVisibWave heightAir tempDewpointWater temp
2014-Sep-02 18:33N 34°39' E 033°01'0 0.0
2014-Sep-02 17:34N 34°39' E 033°01'0 0.0
2014-Sep-02 16:33N 34°39' E 033°01'0 0.0
2014-Sep-02 15:33N 34°39' E 033°01'0 0.0
2014-Sep-02 14:33N 34°39' E 033°01'0 0.0
2014-Sep-02 13:33N 34°39' E 033°01'0 0.0
2014-Sep-02 12:33N 34°39' E 033°01'0 0.0
2014-Sep-02 11:34N 34°39' E 033°01'0 0.0
2014-Sep-02 10:33N 34°39' E 033°01'0 0.0
2014-Sep-02 09:33N 34°39' E 033°01'0 0.0
2014-Sep-02 08:33N 34°39' E 033°01'0 0.0
2014-Sep-02 07:33N 34°39' E 033°01'0 0.0
2014-Sep-02 06:33N 34°39' E 033°01'0 0.0
2014-Sep-02 05:33N 34°39' E 033°01'0 0.0
2014-Sep-02 04:33N 34°39' E 033°01'2 1.7
2014-Sep-02 03:33N 34°39' E 033°03'4 4.3
2014-Sep-02 02:33N 34°35' E 033°04'10 9.5
2014-Sep-02 01:33N 34°32' E 032°53'1111.4
2014-Sep-02 00:33N 34°35' E 032°40'1211.8
2014-Sep-01 23:33N 34°39' E 032°26'31411.0
2014-Aug-31 19:11N 37°18' E 026°52'1013.8
2014-Aug-31 18:27N 37°26' E 026°45'1414.1
2014-Aug-31 17:26N 37°38' E 026°35'  
2014-Aug-28 00:22N 38°26' E 024°59'3813.7
2014-Aug-27 21:34N 38°06' E 025°41'1914.1
2014-Aug-27 20:11N 37°56' E 026°02'914.0
2014-Aug-27 19:33N 37°51' E 026°11'1413.7
2014-Aug-27 18:33N 37°44' E 026°26'1311.9
2014-Aug-27 17:28N 37°35' E 026°38'1112.3
2014-Aug-27 16:33N 37°26' E 026°46'1312.3
2014-Aug-27 15:31N 37°15' E 026°54'1313.0
2014-Aug-27 14:32N 37°04' E 027°02'2311.2
2014-Aug-27 12:27N 36°46' E 027°21'1010.8
2014-Aug-27 11:30N 36°37' E 027°26'19613.6
2014-Aug-26 21:09N 35°14' E 031°06'3613.3
2014-Aug-26 18:28N 34°57' E 031°44'1212.7
2014-Aug-26 17:33N 34°51' E 031°56'1512.6
2014-Aug-26 16:23N 34°44' E 032°12'1012.6
2014-Aug-26 15:33N 34°40' E 032°23'1313.4
2014-Aug-26 14:33N 34°36' E 032°39'1313.3
2014-Aug-26 13:33N 34°32' E 032°54'9 9.4
2014-Aug-26 12:33N 34°38' E 033°03'2 2.0
2014-Aug-26 11:32N 34°39' E 033°01'0 0.0
2014-Aug-26 10:32N 34°39' E 033°01'0 0.0
2014-Aug-26 09:32N 34°39' E 033°01'0 0.0
2014-Aug-26 08:32N 34°39' E 033°01'0 0.0
2014-Aug-26 07:32N 34°39' E 033°01'0 0.0
2014-Aug-26 06:32N 34°39' E 033°01'0 0.0
2014-Aug-26 05:32N 34°39' E 033°01'0 0.0
2014-Aug-26 04:31N 34°39' E 033°01'0 0.2
2014-Aug-26 03:34N 34°39' E 033°01'2 2.3
2014-Aug-26 02:32N 34°40' E 033°04'0 0.1
2014-Aug-26 01:32N 34°40' E 033°04'0 0.0
2014-Aug-26 00:32N 34°40' E 033°04'0 0.0
2014-Aug-25 23:32N 34°40' E 033°04'0 0.0
2014-Aug-25 22:32N 34°40' E 033°04'0 0.1
2014-Aug-25 21:33N 34°40' E 033°04'9 8.6
2014-Aug-25 20:34N 34°32' E 033°00'1313.2
2014-Aug-25 19:34N 34°34' E 032°45'1313.1
2014-Aug-25 18:33N 34°38' E 032°29'1413.7
2014-Aug-25 17:33N 34°44' E 032°14'1413.9
2014-Aug-25 16:31N 34°50' E 031°59'3113.5
2014-Aug-25 14:12N 35°05' E 031°25'1413.1
2014-Aug-25 13:08N 35°12' E 031°10'1213.2
2014-Aug-25 12:13N 35°18' E 030°57'1313.2
2014-Aug-25 11:13N 35°24' E 030°43'1112.7
2014-Aug-25 10:21N 35°29' E 030°31'1012.3
2014-Aug-25 09:33N 35°34' E 030°20'1212.1
2014-Aug-25 08:32N 35°40' E 030°07'2512.0
2014-Aug-25 06:29N 35°51' E 029°40'2311.9
2014-Aug-25 04:31N 36°02' E 029°14'1212.3
2014-Aug-25 03:32N 36°08' E 029°01'6312.6
2014-Aug-24 22:34N 36°29' E 027°48'1313.3
2014-Aug-24 21:33N 36°34' E 027°33'3711.5
2014-Aug-24 18:17N 37°03' E 027°03'1013.4
2014-Aug-24 17:33N 37°12' E 026°57'2813.7
2014-Aug-24 15:32N 37°35' E 026°38'1313.4
2014-Aug-24 14:33N 37°44' E 026°26'1313.3
2014-Aug-24 13:33N 37°51' E 026°12'2613.1
2014-Aug-24 11:33N 38°05' E 025°43'1312.7
2014-Aug-24 10:33N 38°11' E 025°29'1313.2
2014-Aug-24 09:33N 38°18' E 025°15'2713.5
2014-Aug-24 07:32N 38°32' E 024°45'  

Dump ship's entire track history